Terminal Aerodrome Forecast
Issued by NWS

Home | Current Version | Previous Version | Graphics & Text | Print | Product List | Glossary On
Versions: 1 2 3 4 5 6 7 8 9 10 11 12 13 14 15 16 17 18 19 20 21 22 23 24 25 26 27 28 29 30 31
000
FTUS45 KGGW 012300
TAFOLF
TAF
KOLF 012320Z 0200/0224 VRB03KT 5SM FU VCTS BKN080CB
     FM020500 VRB04KT 5SM FU SCT080
     FM021700 33010KT 5SM FU SCT070=

USA.gov is the U.S. government's official web portal to all federal, state and local government web resources and services.